Time;durP1;ratioP1;P1;durP2;ratioP2;P2;SDS_P1;SDS_P2;PMS_P1;PMS_P2;Temp;Humidity;BMP_temperature;BMP_pressure;BME280_temperature;BME280_humidity;BME280_pressure;Samples;Min_cycle;Max_cycle;Signal;HPM_P1;HPM_P2
2022/06/16 00:01:46;;;;;;;;;6.60;6.60;;;;;25.58;37.41;101089.34;5019783;28;45729;-53
2022/06/16 00:04:12;;;;;;;;;9.75;8.25;;;;;25.67;37.71;101099.88;5037722;28;45499;-51
2022/06/16 00:06:37;;;;;;;;;10.25;10.00;;;;;25.49;37.13;101074.25;5036757;28;45422;-50
2022/06/16 00:09:03;;;;;;;;;10.00;9.75;;;;;25.57;37.64;101104.50;5037621;28;46450;-48
2022/06/16 00:11:28;;;;;;;;;10.00;10.00;;;;;25.38;37.63;101078.34;5037948;28;45424;-50
2022/06/16 00:13:53;;;;;;;;;11.50;9.00;;;;;25.50;37.58;101106.00;5036164;28;45398;-48
2022/06/16 00:16:20;;;;;;;;;10.00;9.75;;;;;25.48;38.37;101105.47;5036774;28;45853;-51
2022/06/16 00:18:45;;;;;;;;;8.80;8.80;;;;;25.42;38.12;101118.75;5036076;28;45477;-54
2022/06/16 00:21:11;;;;;;;;;8.50;8.50;;;;;25.39;38.26;101114.59;5037258;28;45459;-49
2022/06/16 00:23:36;;;;;;;;;2.00;2.00;;;;;25.29;38.12;101107.16;5037402;28;45504;-53
2022/06/16 00:26:02;;;;;;;;;10.25;8.25;;;;;25.26;38.33;101098.50;5037005;28;45239;-50
2022/06/16 00:28:28;;;;;;;;;8.80;8.80;;;;;25.29;38.63;101117.56;5034707;28;46073;-48
2022/06/16 00:31:03;;;;;;;;;9.50;8.75;;;;;25.19;38.80;101098.88;5017032;28;45231;-52
2022/06/16 00:33:29;;;;;;;;;8.20;8.20;;;;;25.37;38.36;101125.28;5017262;28;45382;-51
2022/06/16 00:35:54;;;;;;;;;13.25;11.25;;;;;25.28;38.34;101124.28;5017371;28;45302;-50
2022/06/16 00:38:20;;;;;;;;;11.25;10.00;;;;;25.26;38.66;101126.56;5016992;28;46888;-50
2022/06/16 00:40:45;;;;;;;;;12.00;11.25;;;;;25.00;38.66;101088.47;5015843;28;45340;-47
2022/06/16 00:43:11;;;;;;;;;8.50;8.50;;;;;25.26;38.46;101135.84;5003053;28;45309;-48
2022/06/16 00:45:55;;;;;;;;;9.25;9.25;;;;;25.21;38.93;101138.72;5015520;28;45323;-48
2022/06/16 00:48:36;;;;;;;;;9.20;8.80;;;;;24.95;39.44;101112.94;5016691;28;46209;-49
2022/06/16 00:51:04;;;;;;;;;10.40;9.00;;;;;24.61;39.41;101072.66;5015400;28;45539;-49
2022/06/16 00:53:30;;;;;;;;;11.20;10.40;;;;;25.01;39.63;101148.25;5016761;28;45393;-52
2022/06/16 00:55:56;;;;;;;;;8.75;8.75;;;;;24.89;39.41;101134.66;5017109;28;45349;-49
2022/06/16 00:58:22;;;;;;;;;10.75;10.75;;;;;24.81;39.50;101133.34;5015619;28;46851;-49
2022/06/16 01:00:47;;;;;;;;;10.00;10.00;;;;;25.00;39.71;101161.47;5017097;28;45398;-49
2022/06/16 01:03:13;;;;;;;;;9.50;9.50;;;;;25.03;39.99;101165.66;5014873;28;45391;-48
2022/06/16 01:05:39;;;;;;;;;12.00;11.00;;;;;24.81;40.05;101129.72;5016862;28;45230;-50
2022/06/16 01:08:05;;;;;;;;;9.80;9.80;;;;;24.91;39.71;101143.59;5016707;28;46797;-51
2022/06/16 01:10:37;;;;;;;;;11.00;9.75;;;;;24.99;39.82;101170.19;5015010;28;45327;-49
2022/06/16 01:16:23;;;;;;;;;10.80;10.80;;;;;24.97;39.94;101170.47;5016779;28;45332;-46
2022/06/16 01:19:08;;;;;;;;;14.60;11.40;;;;;24.89;40.18;101176.75;5015293;28;45710;-51
2022/06/16 01:21:40;;;;;;;;;12.60;11.00;;;;;24.76;40.55;101184.72;4998180;28;45524;-49
2022/06/16 01:24:20;;;;;;;;;9.60;9.00;;;;;24.81;40.20;101183.84;5015577;28;45446;-49
2022/06/16 01:27:04;;;;;;;;;11.80;11.80;;;;;24.72;40.86;101185.63;5015748;28;45434;-52
2022/06/16 01:29:48;;;;;;;;;12.00;11.20;;;;;24.73;40.64;101190.09;5016205;28;46247;-46
2022/06/16 01:32:19;;;;;;;;;10.80;10.80;;;;;24.77;40.76;101189.19;5016595;28;45333;-54
2022/06/16 01:35:02;;;;;;;;;11.40;10.20;;;;;24.51;40.36;101154.97;5016680;28;45769;-50
2022/06/16 01:37:34;;;;;;;;;10.40;10.40;;;;;24.53;40.55;101155.50;5016616;28;45288;-50
2022/06/16 01:40:08;;;;;;;;;10.20;9.00;;;;;24.72;41.02;101194.88;5015369;28;46588;-51
2022/06/16 01:42:56;;;;;;;;;11.20;11.20;;;;;24.71;41.17;101193.19;5014690;28;45344;-48
2022/06/16 01:45:34;;;;;;;;;11.20;11.20;;;;;24.67;41.19;101199.69;4998408;28;45327;-52
2022/06/16 01:47:59;;;;;;;;;13.00;13.00;;;;;24.64;41.24;101199.16;5016542;28;45334;-50
2022/06/16 01:50:36;;;;;;;;;10.00;9.00;;;;;24.41;41.52;101169.94;5014599;28;46768;-50
2022/06/16 01:53:08;;;;;;;;;13.00;10.40;;;;;24.53;41.35;101196.78;4992143;28;45590;-54
2022/06/16 01:55:36;;;;;;;;;9.20;9.20;;;;;24.52;41.73;101201.53;4989912;28;45486;-47
2022/06/16 01:58:05;;;;;;;;;10.20;10.20;;;;;24.53;41.76;101203.22;5009948;28;45352;-50
2022/06/16 02:00:31;;;;;;;;;11.40;11.40;;;;;24.40;42.08;101196.34;5010974;28;46602;-51
2022/06/16 02:03:37;;;;;;;;;10.50;10.50;;;;;24.42;41.96;101218.44;5010973;28;45752;-50
2022/06/16 02:06:19;;;;;;;;;11.00;11.00;;;;;24.37;42.02;101216.53;4915634;28;45353;-54
2022/06/16 02:08:50;;;;;;;;;12.00;11.00;;;;;24.34;42.28;101211.53;4916088;28;45486;-49
2022/06/16 02:11:27;;;;;;;;;12.80;9.00;;;;;24.22;42.26;101215.56;4973013;28;45806;-49
2022/06/16 02:14:14;;;;;;;;;12.60;11.60;;;;;24.20;42.27;101236.59;5010794;28;45343;-50
2022/06/16 02:16:40;;;;;;;;;14.80;12.00;;;;;24.17;42.66;101224.00;4995998;28;45358;-48
2022/06/16 02:19:09;;;;;;;;;8.75;8.50;;;;;24.18;42.27;101222.88;5011445;28;45348;-50
2022/06/16 02:21:47;;;;;;;;;13.60;10.60;;;;;24.18;42.65;101220.06;5010798;28;47537;-49
2022/06/16 02:24:13;;;;;;;;;11.80;10.00;;;;;23.95;42.72;101199.19;4994202;28;45507;-50
2022/06/16 02:26:39;;;;;;;;;12.20;11.20;;;;;24.05;43.04;101220.69;5011093;28;45360;-53
2022/06/16 02:29:29;;;;;;;;;12.50;10.00;;;;;24.03;42.78;101222.97;5011039;28;45328;-50
2022/06/16 02:32:29;;;;;;;;;12.80;12.00;;;;;24.05;42.93;101226.31;4995622;28;45914;-53
2022/06/16 02:35:10;;;;;;;;;15.80;12.40;;;;;24.02;43.07;101221.28;4995444;28;45432;-52
2022/06/16 02:38:00;;;;;;;;;11.00;10.40;;;;;23.99;42.81;101224.66;5009747;28;45392;-53
2022/06/16 02:40:49;;;;;;;;;13.20;11.20;;;;;23.94;43.39;101220.78;4995895;28;45466;-48
2022/06/16 02:43:46;;;;;;;;;10.40;10.40;;;;;23.92;43.34;101233.41;4995721;28;45886;-51
2022/06/16 02:46:39;;;;;;;;;12.40;12.40;;;;;23.90;43.34;101224.47;5001854;28;45452;-47
2022/06/16 02:49:11;;;;;;;;;13.60;11.40;;;;;23.92;43.00;101227.81;4967222;28;45409;-50
2022/06/16 02:51:50;;;;;;;;;13.20;11.40;;;;;23.77;43.11;101192.31;5011043;28;45581;-50
2022/06/16 02:54:36;;;;;;;;;14.80;14.00;;;;;23.95;43.08;101222.47;5010413;28;46929;-47
2022/06/16 02:57:31;;;;;;;;;10.60;10.60;;;;;23.96;43.35;101226.94;5010274;28;45493;-53
2022/06/16 03:00:10;;;;;;;;;17.20;14.20;;;;;23.91;43.10;101229.75;4958717;28;45988;-53
2022/06/16 03:02:38;;;;;;;;;13.60;12.40;;;;;23.77;43.41;101207.19;5010934;28;45886;-52
2022/06/16 03:05:05;;;;;;;;;15.80;11.80;;;;;23.69;43.21;101208.63;5012522;28;45506;-52
2022/06/16 03:07:33;;;;;;;;;11.60;10.00;;;;;23.82;43.63;101234.31;4998888;28;45950;-52
2022/06/16 03:10:02;;;;;;;;;14.20;12.20;;;;;23.77;43.35;101242.75;4999097;28;45333;-49
2022/06/16 03:12:28;;;;;;;;;14.40;13.20;;;;;23.67;43.63;101241.69;4997709;28;45432;-47
2022/06/16 03:14:53;;;;;;;;;10.50;10.50;;;;;23.51;43.78;101224.13;4997160;28;45414;-52
2022/06/16 03:17:19;;;;;;;;;17.25;13.25;;;;;23.68;43.89;101240.56;4998581;28;46002;-52
2022/06/16 03:19:44;;;;;;;;;13.25;11.00;;;;;23.70;43.80;101251.50;5013740;28;45409;-51
2022/06/16 03:22:10;;;;;;;;;12.75;11.50;;;;;23.61;43.92;101242.84;4997107;28;45515;-53
2022/06/16 03:24:36;;;;;;;;;17.00;14.25;;;;;23.59;43.85;101252.66;4998896;28;45853;-49
2022/06/16 03:27:01;;;;;;;;;15.75;14.00;;;;;23.49;44.25;101246.00;5013869;28;45570;-51
2022/06/16 03:29:27;;;;;;;;;14.50;13.50;;;;;23.46;44.37;101246.56;5000342;28;45303;-52
2022/06/16 03:31:55;;;;;;;;;15.00;14.00;;;;;23.55;43.93;101258.00;5017362;28;45303;-51
2022/06/16 03:34:21;;;;;;;;;12.40;12.40;;;;;23.41;44.49;101238.19;5018183;28;46777;-49
2022/06/16 03:36:47;;;;;;;;;13.60;13.60;;;;;23.51;44.35;101259.69;5017137;28;45207;-48
2022/06/16 03:39:13;;;;;;;;;12.40;12.40;;;;;23.50;44.36;101256.09;5018158;28;45302;-52
2022/06/16 03:41:38;;;;;;;;;14.50;13.50;;;;;23.52;44.21;101262.22;5018585;28;45239;-50
2022/06/16 03:44:04;;;;;;;;;13.75;13.75;;;;;23.43;44.58;101255.56;4971214;28;48261;-52
2022/06/16 03:46:29;;;;;;;;;14.75;13.00;;;;;23.51;44.02;101256.91;5017895;28;45327;-49
2022/06/16 03:48:55;;;;;;;;;14.25;13.50;;;;;23.37;44.05;101237.91;5016864;28;45405;-50
2022/06/16 03:51:20;;;;;;;;;15.75;13.25;;;;;23.47;44.35;101267.03;5016915;28;45236;-50
2022/06/16 03:53:46;;;;;;;;;11.50;10.50;;;;;23.44;44.55;101265.63;5018147;28;45563;-49
2022/06/16 03:56:12;;;;;;;;;16.75;16.75;;;;;23.45;44.20;101264.50;5016769;28;45393;-47
2022/06/16 03:58:38;;;;;;;;;16.25;14.75;;;;;23.20;44.58;101238.25;5000523;28;45401;-51
2022/06/16 04:01:03;;;;;;;;;14.00;11.00;;;;;23.28;44.65;101262.03;5017035;28;45380;-51
2022/06/16 04:06:13;;;;;;;;;14.40;14.00;;;;;23.35;44.80;101278.53;5017746;28;45351;-49
2022/06/16 04:08:39;;;;;;;;;19.75;15.00;;;;;23.18;45.03;101274.09;5000196;28;45369;-48
2022/06/16 04:11:26;;;;;;;;;18.40;15.80;;;;;23.18;44.70;101273.25;5018080;28;45322;-48
2022/06/16 04:13:49;;;;;;;;;15.40;13.80;;;;;23.20;44.98;101277.44;5017606;28;45364;-53
2022/06/16 04:16:15;;;;;;;;;11.75;11.75;;;;;23.08;44.64;101246.13;5016118;28;45339;-51
2022/06/16 04:18:41;;;;;;;;;14.50;13.00;;;;;23.18;44.92;101270.44;5017639;28;45337;-51
2022/06/16 04:21:06;;;;;;;;;16.00;11.75;;;;;23.09;44.82;101251.44;4983835;28;45475;-48
2022/06/16 04:23:32;;;;;;;;;13.25;11.00;;;;;23.25;44.86;101271.81;5015975;28;46118;-51
2022/06/16 04:25:57;;;;;;;;;14.25;13.25;;;;;23.11;44.43;101259.56;5017851;28;45697;-48
2022/06/16 04:28:23;;;;;;;;;15.00;15.00;;;;;23.28;44.95;101285.25;5017563;28;45302;-47
2022/06/16 04:30:48;;;;;;;;;14.00;14.00;;;;;23.30;44.75;101296.19;5017709;28;45915;-48
2022/06/16 04:33:14;;;;;;;;;14.50;13.50;;;;;23.31;44.70;101292.28;5016384;28;46366;-49
2022/06/16 04:35:40;;;;;;;;;15.75;14.50;;;;;23.34;44.64;101300.13;5017347;28;45417;-50
2022/06/16 04:38:06;;;;;;;;;13.40;13.40;;;;;23.29;44.77;101291.69;5017937;28;45314;-49
2022/06/16 04:40:31;;;;;;;;;14.00;12.25;;;;;23.13;44.38;101260.09;5017818;28;45400;-53
2022/06/16 04:42:57;;;;;;;;;14.25;14.25;;;;;23.29;44.32;101288.91;5017032;28;46765;-50
2022/06/16 04:45:22;;;;;;;;;14.00;14.00;;;;;23.34;44.40;101297.31;5017346;28;45370;-52
2022/06/16 04:47:48;;;;;;;;;11.50;11.50;;;;;23.22;44.42;101275.19;5015966;28;45419;-48
2022/06/16 04:50:17;;;;;;;;;17.75;15.75;;;;;23.34;44.38;101310.47;5017725;28;45353;-47
2022/06/16 04:52:42;;;;;;;;;15.20;15.20;;;;;23.27;44.49;101302.34;5015604;28;46196;-49
2022/06/16 04:55:08;;;;;;;;;14.25;14.25;;;;;23.23;44.30;101306.84;5016028;28;45416;-50
2022/06/16 04:57:34;;;;;;;;;16.60;15.20;;;;;23.23;44.59;101312.44;5016206;28;45350;-49
2022/06/16 04:59:59;;;;;;;;;13.25;13.00;;;;;23.22;44.51;101316.34;5016078;28;45301;-51
2022/06/16 05:02:25;;;;;;;;;13.75;13.75;;;;;23.17;44.32;101314.41;5016846;28;46132;-48
2022/06/16 05:04:50;;;;;;;;;17.75;17.00;;;;;23.21;44.18;101328.69;5016639;28;45364;-48
2022/06/16 05:07:16;;;;;;;;;12.50;12.50;;;;;23.06;44.71;101309.97;5016995;28;45306;-50
2022/06/16 05:09:41;;;;;;;;;13.25;13.25;;;;;23.18;44.54;101332.88;5017213;28;45354;-47
2022/06/16 05:12:07;;;;;;;;;16.25;15.50;;;;;23.16;44.61;101329.53;5016501;28;45817;-52
2022/06/16 05:14:33;;;;;;;;;14.50;12.50;;;;;22.98;44.62;101319.75;5016846;28;45231;-53
2022/06/16 05:16:58;;;;;;;;;14.00;14.00;;;;;22.98;44.80;101328.16;5016818;28;45307;-51
2022/06/16 05:19:24;;;;;;;;;16.25;14.50;;;;;23.15;44.62;101351.09;5017017;28;45284;-54
2022/06/16 05:21:50;;;;;;;;;16.25;15.00;;;;;23.14;44.23;101345.75;5015198;28;46882;-54
2022/06/16 05:24:15;;;;;;;;;15.00;13.50;;;;;23.22;44.60;101356.38;5016580;28;45307;-50
2022/06/16 05:26:40;;;;;;;;;17.00;17.00;;;;;23.23;44.24;101369.28;5015813;28;45425;-53
2022/06/16 05:29:06;;;;;;;;;16.75;16.00;;;;;22.98;44.38;101342.16;5016845;28;45374;-48
2022/06/16 05:31:31;;;;;;;;;16.75;14.50;;;;;23.02;44.69;101357.25;5016134;28;46812;-47
2022/06/16 05:33:57;;;;;;;;;13.50;12.00;;;;;23.22;44.33;101386.34;5016401;28;45258;-53
2022/06/16 05:36:23;;;;;;;;;17.25;14.50;;;;;23.22;44.25;101386.34;5016587;28;45252;-48
2022/06/16 05:38:48;;;;;;;;;15.75;14.75;;;;;23.20;44.30;101392.22;5016826;28;45357;-48
2022/06/16 05:41:15;;;;;;;;;15.25;12.75;;;;;23.12;44.26;101388.03;5016231;28;46549;-52
2022/06/16 05:43:41;;;;;;;;;16.80;15.60;;;;;23.20;44.31;101405.41;4998297;28;45427;-55
2022/06/16 05:46:07;;;;;;;;;15.00;13.25;;;;;23.17;44.12;101406.81;5016444;28;45398;-51
2022/06/16 05:48:33;;;;;;;;;21.40;18.80;;;;;23.10;44.36;101404.28;5016972;28;45365;-50
2022/06/16 05:51:06;;;;;;;;;15.25;15.25;;;;;23.20;44.64;101409.03;5014972;28;46978;-51
2022/06/16 05:53:31;;;;;;;;;15.80;15.80;;;;;23.18;44.16;101410.44;5016194;28;45543;-51
2022/06/16 05:55:57;;;;;;;;;14.00;14.00;;;;;23.05;44.43;101390.28;5014967;28;45375;-52
2022/06/16 05:58:22;;;;;;;;;15.75;13.50;;;;;23.06;44.56;101410.72;5016104;28;45347;-49
2022/06/16 06:00:48;;;;;;;;;18.50;17.00;;;;;23.08;44.29;101403.72;5016069;28;45635;-49
2022/06/16 06:03:13;;;;;;;;;15.00;14.25;;;;;23.07;44.28;101396.47;5015687;28;45297;-51
2022/06/16 06:05:39;;;;;;;;;17.00;16.25;;;;;23.04;43.96;101416.59;5016408;28;45420;-52
2022/06/16 06:16:28;;;;;;;;;19.40;17.80;;;;;22.91;44.78;101419.97;5014836;28;45504;-50
2022/06/16 06:18:57;;;;;;;;;16.20;16.00;;;;;22.94;44.73;101431.44;5015277;28;45430;-47
2022/06/16 06:24:08;;;;;;;;;17.80;15.60;;;;;22.93;44.92;101415.75;5014483;28;45403;-49
2022/06/16 06:26:33;;;;;;;;;17.50;17.50;;;;;22.92;44.63;101413.22;5015586;28;45325;-49
2022/06/16 06:28:59;;;;;;;;;19.00;19.00;;;;;23.00;45.03;101438.72;5014606;28;45912;-53
2022/06/16 06:31:24;;;;;;;;;19.25;16.50;;;;;23.00;44.67;101449.91;5013601;28;45511;-50
2022/06/16 06:33:50;;;;;;;;;14.75;14.50;;;;;22.74;44.58;101398.69;5015400;28;45337;-51
2022/06/16 06:36:16;;;;;;;;;19.75;18.00;;;;;23.12;44.80;101448.78;5015654;28;45350;-52
2022/06/16 06:38:41;;;;;;;;;17.80;15.60;;;;;23.02;44.72;101436.47;5017197;28;45305;-48
2022/06/16 06:41:07;;;;;;;;;17.50;16.00;;;;;23.11;44.68;101456.34;5018796;28;46117;-51
2022/06/16 06:43:32;;;;;;;;;18.50;18.00;;;;;23.06;44.47;101444.31;5018396;28;45794;-51
2022/06/16 06:45:58;;;;;;;;;19.75;17.50;;;;;23.22;44.15;101462.78;5017715;28;45402;-51
2022/06/16 06:48:23;;;;;;;;;18.00;18.00;;;;;23.17;44.28;101459.16;5019002;28;45780;-50
2022/06/16 06:50:49;;;;;;;;;18.00;18.00;;;;;23.20;44.13;101469.81;5018504;28;46494;-52
2022/06/16 06:53:14;;;;;;;;;17.50;17.50;;;;;23.11;43.98;101464.75;5018690;28;45332;-51
2022/06/16 06:55:45;;;;;;;;;20.50;20.50;;;;;23.05;44.12;101456.63;5018368;28;45344;-52
2022/06/16 06:58:21;;;;;;;;;20.60;18.00;;;;;22.93;44.18;101431.72;5034135;28;45458;-53
2022/06/16 07:00:49;;;;;;;;;15.60;14.80;;;;;23.10;44.43;101465.88;5017443;28;46127;-50
2022/06/16 07:03:15;;;;;;;;;18.80;17.80;;;;;23.19;44.23;101468.09;5033567;28;45351;-50
2022/06/16 07:05:40;;;;;;;;;16.00;14.25;;;;;23.12;43.92;101449.63;5017201;28;45184;-53
2022/06/16 07:08:06;;;;;;;;;19.25;19.25;;;;;23.35;43.97;101475.41;5017555;28;45554;-53
2022/06/16 07:10:31;;;;;;;;;19.25;17.00;;;;;23.37;43.44;101472.34;5017190;28;45320;-53
2022/06/16 07:12:57;;;;;;;;;17.25;17.00;;;;;23.16;43.34;101466.72;5017216;28;45880;-50
2022/06/16 07:15:22;;;;;;;;;18.25;18.00;;;;;23.07;43.14;101465.59;5018436;28;45358;-50
2022/06/16 07:17:48;;;;;;;;;24.00;18.50;;;;;23.01;43.38;101467.56;5017141;28;45473;-51
2022/06/16 07:20:15;;;;;;;;;21.50;21.25;;;;;23.29;43.47;101499.75;5017135;28;46722;-51
2022/06/16 07:22:42;;;;;;;;;17.80;17.60;;;;;23.36;42.90;101498.63;5017776;28;45420;-49
2022/06/16 07:25:07;;;;;;;;;19.80;17.40;;;;;23.44;43.19;101517.69;5033902;28;45343;-50
2022/06/16 07:27:33;;;;;;;;;19.25;17.50;;;;;23.34;42.08;101484.09;5018764;28;45381;-50
2022/06/16 07:29:58;;;;;;;;;19.25;18.00;;;;;23.45;43.07;101507.31;5016707;28;45486;-52
2022/06/16 07:32:24;;;;;;;;;21.50;19.00;;;;;23.45;42.66;101508.19;5016745;28;45260;-50
2022/06/16 07:34:49;;;;;;;;;23.50;21.00;;;;;23.52;42.34;101507.88;4961935;28;46006;-52
2022/06/16 07:37:15;;;;;;;;;20.00;19.00;;;;;23.59;42.32;101516.88;4998698;28;45344;-48
2022/06/16 07:39:40;;;;;;;;;20.75;15.25;;;;;23.39;41.99;101487.75;4996893;28;46487;-51
2022/06/16 07:42:08;;;;;;;;;19.25;17.25;;;;;23.57;41.49;101512.66;4996770;28;45548;-50
2022/06/16 07:44:33;;;;;;;;;21.40;17.40;;;;;23.60;41.38;101510.13;4998239;28;45562;-47
2022/06/16 07:46:59;;;;;;;;;19.75;16.25;;;;;23.79;41.38;101512.31;4998214;28;45355;-48
2022/06/16 07:49:27;;;;;;;;;15.50;15.50;;;;;23.86;41.10;101512.03;4997221;28;46110;-51
2022/06/16 07:51:53;;;;;;;;;15.60;14.40;;;;;23.86;40.94;101512.88;4996648;28;45436;-47
2022/06/16 07:54:19;;;;;;;;;18.40;16.60;;;;;23.98;41.15;101508.91;4996657;28;45425;-52
2022/06/16 07:56:45;;;;;;;;;18.50;15.25;;;;;24.07;40.49;101507.25;4996968;28;45218;-50
2022/06/16 07:59:11;;;;;;;;;17.00;14.20;;;;;24.21;40.62;101505.50;4997504;28;46693;-52
2022/06/16 08:01:37;;;;;;;;;18.00;15.40;;;;;24.26;39.79;101501.03;4996872;28;45376;-51
2022/06/16 08:04:05;;;;;;;;;17.25;14.50;;;;;24.31;39.50;101503.78;4997388;28;45388;-50
2022/06/16 08:06:31;;;;;;;;;16.60;15.20;;;;;24.35;39.71;101511.31;4998287;28;45417;-53
2022/06/16 08:08:57;;;;;;;;;15.20;15.20;;;;;24.34;39.48;101514.44;4996503;28;45365;-55
2022/06/16 08:14:07;;;;;;;;;16.80;14.40;;;;;24.35;38.73;101502.09;4997494;28;45372;-57
2022/06/16 08:16:33;;;;;;;;;16.75;15.75;;;;;24.25;38.42;101476.88;4996974;28;45398;-50
2022/06/16 08:18:59;;;;;;;;;14.80;12.60;;;;;24.39;38.33;101474.31;4996304;28;46315;-52
2022/06/16 08:21:25;;;;;;;;;14.00;14.00;;;;;24.62;38.42;101512.91;4996175;28;45450;-53
2022/06/16 08:23:50;;;;;;;;;14.50;12.50;;;;;24.67;38.57;101508.38;4997498;28;45283;-52
2022/06/16 08:26:16;;;;;;;;;16.00;13.25;;;;;24.69;38.25;101511.72;4996295;28;45238;-54
2022/06/16 08:28:41;;;;;;;;;12.00;12.00;;;;;24.72;37.53;101511.16;4982211;28;46508;-53
2022/06/16 08:31:07;;;;;;;;;16.50;12.75;;;;;24.71;37.08;101510.31;4994688;28;45429;-51
2022/06/16 08:33:32;;;;;;;;;13.25;12.00;;;;;24.62;37.72;101475.56;4979027;28;45161;-54
2022/06/16 08:35:58;;;;;;;;;10.50;10.50;;;;;24.85;37.20;101513.34;4996888;28;46336;-54
2022/06/16 08:38:23;;;;;;;;;10.00;9.75;;;;;24.71;37.19;101479.44;4988864;28;45449;-50
2022/06/16 08:41:11;;;;;;;;;10.50;8.75;;;;;24.72;36.90;101475.53;4985533;28;45566;-54
2022/06/16 08:43:36;;;;;;;;;13.20;9.60;;;;;24.89;36.37;101502.38;4977449;28;45394;-49
2022/06/16 08:46:03;;;;;;;;;11.00;11.00;;;;;24.94;35.55;101515.53;4991956;28;46517;-48
2022/06/16 08:48:46;;;;;;;;;14.80;10.60;;;;;24.90;36.71;101490.88;4978275;28;46452;-49
2022/06/16 08:51:33;;;;;;;;;13.60;13.00;;;;;25.03;36.16;101517.44;4975497;28;45509;-48
2022/06/16 08:54:31;;;;;;;;;10.60;10.60;;;;;25.09;35.02;101526.69;4994468;28;45438;-50
2022/06/16 08:57:25;;;;;;;;;10.20;9.20;;;;;25.08;35.05;101512.91;4977090;28;45531;-49
2022/06/16 08:59:52;;;;;;;;;11.60;11.60;;;;;25.18;34.95;101516.47;4979821;28;46484;-49
2022/06/16 09:02:24;;;;;;;;;11.00;11.00;;;;;25.22;34.43;101511.13;4994144;28;45378;-50
2022/06/16 09:04:51;;;;;;;;;15.00;10.00;;;;;25.27;33.66;101513.88;4995528;28;45603;-54
2022/06/16 09:07:48;;;;;;;;;8.20;7.40;;;;;25.26;33.15;101506.59;4997267;28;45358;-54
2022/06/16 09:10:37;;;;;;;;;12.60;12.00;;;;;25.18;33.05;101479.13;5011819;28;46823;-47
2022/06/16 09:13:24;;;;;;;;;10.00;10.00;;;;;25.44;33.15;101513.47;5016833;28;45298;-47
2022/06/16 09:15:55;;;;;;;;;9.80;9.80;;;;;25.47;32.93;101503.59;5016849;28;45195;-50
2022/06/16 09:18:42;;;;;;;;;12.00;9.60;;;;;25.52;32.83;101516.75;5016966;28;45427;-52
2022/06/16 09:21:10;;;;;;;;;11.40;10.60;;;;;25.54;32.74;101508.91;5003286;28;45728;-47
2022/06/16 09:23:59;;;;;;;;;13.20;11.00;;;;;25.61;32.53;101512.19;4996221;28;45511;-53
2022/06/16 09:26:34;;;;;;;;;9.60;9.20;;;;;25.68;32.32;101512.69;4980586;28;45521;-53
2022/06/16 09:29:09;;;;;;;;;12.00;10.60;;;;;25.72;33.12;101518.56;4986256;28;45615;-55
2022/06/16 09:31:42;;;;;;;;;10.00;10.00;;;;;25.58;32.10;101481.88;4987300;28;46368;-51
2022/06/16 09:34:17;;;;;;;;;9.80;9.80;;;;;25.88;32.74;101516.41;4977464;28;45807;-51
2022/06/16 09:36:46;;;;;;;;;9.80;8.60;;;;;25.92;31.83;101517.50;4995259;28;45428;-55
2022/06/16 09:39:27;;;;;;;;;10.40;10.40;;;;;25.84;32.03;101510.56;4979494;28;45465;-52
2022/06/16 09:42:33;;;;;;;;;7.20;7.20;;;;;25.79;33.04;101502.19;4994302;28;46727;-53
2022/06/16 09:45:03;;;;;;;;;7.00;6.20;;;;;25.80;33.17;101501.06;4994967;28;45452;-52
2022/06/16 09:47:32;;;;;;;;;9.00;8.00;;;;;25.81;32.70;101490.63;4994135;28;45343;-49
2022/06/16 09:50:00;;;;;;;;;9.60;9.60;;;;;25.79;32.04;101490.97;4978793;28;45428;-48
2022/06/16 09:52:35;;;;;;;;;8.80;7.00;;;;;25.79;31.76;101496.56;5013320;28;46611;-48
2022/06/16 09:55:10;;;;;;;;;9.00;9.00;;;;;25.78;31.62;101486.44;4998085;28;45536;-51
2022/06/16 09:57:42;;;;;;;;;11.00;9.00;;;;;25.64;30.74;101471.41;4996711;28;45378;-53
2022/06/16 10:00:10;;;;;;;;;7.60;7.60;;;;;25.65;30.54;101478.72;4995035;28;45370;-51
2022/06/16 10:03:01;;;;;;;;;8.80;8.80;;;;;25.63;30.78;101467.78;4978743;28;46427;-51
2022/06/16 10:05:57;;;;;;;;;6.60;6.60;;;;;25.83;30.80;101497.63;4993496;28;45793;-50
2022/06/16 10:08:36;;;;;;;;;7.00;7.00;;;;;25.92;31.23;101495.00;4988508;28;45428;-52
2022/06/16 10:11:08;;;;;;;;;8.80;7.80;;;;;26.01;31.01;101506.44;4994568;28;45413;-52
2022/06/16 10:13:41;;;;;;;;;8.00;8.00;;;;;26.04;30.61;101505.84;4994683;28;46024;-50
2022/06/16 10:16:11;;;;;;;;;8.80;8.00;;;;;26.04;30.32;101488.97;4978831;28;45970;-49
2022/06/16 10:18:37;;;;;;;;;8.80;8.80;;;;;25.92;29.95;101454.84;4977267;28;45456;-49
2022/06/16 10:21:07;;;;;;;;;8.20;8.20;;;;;26.12;30.17;101493.94;4994785;28;45325;-49
2022/06/16 10:23:43;;;;;;;;;9.20;9.20;;;;;26.12;30.34;101485.50;4993975;28;45469;-51
2022/06/16 10:26:10;;;;;;;;;8.00;7.00;;;;;26.20;29.41;101489.63;4978377;28;45398;-50
2022/06/16 10:29:11;;;;;;;;;4.80;4.80;;;;;26.24;29.76;101489.88;4964633;28;47840;-49
2022/06/16 10:31:38;;;;;;;;;8.80;8.80;;;;;26.24;29.80;101479.47;4975076;28;45383;-48
2022/06/16 10:34:04;;;;;;;;;5.40;5.40;;;;;26.25;30.23;101486.78;4993896;28;47658;-49
2022/06/16 10:36:30;;;;;;;;;7.80;7.00;;;;;26.29;29.96;101492.63;4997889;28;45421;-50
2022/06/16 10:39:16;;;;;;;;;5.20;5.00;;;;;26.41;29.39;101482.94;5014274;28;45487;-50
2022/06/16 10:42:02;;;;;;;;;7.40;6.40;;;;;26.42;30.02;101473.34;5014587;28;45492;-50
2022/06/16 10:44:28;;;;;;;;;12.40;11.20;;;;;26.50;29.68;101481.09;4975162;28;45844;-46
2022/06/16 10:46:59;;;;;;;;;7.00;7.00;;;;;26.55;28.82;101480.19;4976342;28;45348;-50
2022/06/16 10:49:30;;;;;;;;;10.80;10.60;;;;;26.31;28.81;101434.06;4991374;28;45382;-48
2022/06/16 10:52:00;;;;;;;;;8.80;8.80;;;;;26.66;29.63;101476.09;4975354;28;45291;-49
2022/06/16 10:54:37;;;;;;;;;8.20;7.00;;;;;26.70;28.82;101471.53;4961348;28;46716;-49
2022/06/16 10:57:19;;;;;;;;;9.40;9.40;;;;;26.80;29.10;101482.63;4994312;28;45379;-52
2022/06/16 11:00:10;;;;;;;;;9.40;9.00;;;;;26.87;29.48;101479.44;4994302;28;45412;-53
2022/06/16 11:02:35;;;;;;;;;7.80;7.00;;;;;26.89;27.51;101474.31;4994340;28;45485;-48
2022/06/16 11:05:12;;;;;;;;;6.00;6.00;;;;;26.92;28.38;101476.56;4977598;28;45465;-49
2022/06/16 11:07:42;;;;;;;;;6.40;6.40;;;;;26.91;28.63;101463.63;4992767;28;45322;-50
2022/06/16 11:10:29;;;;;;;;;9.40;9.00;;;;;26.95;28.32;101471.47;4993901;28;45338;-49
2022/06/16 11:12:54;;;;;;;;;8.80;8.80;;;;;27.04;29.28;101461.16;4994599;28;45188;-50
2022/06/16 11:15:38;;;;;;;;;6.00;6.00;;;;;27.08;29.02;101469.84;4977381;28;45698;-54
2022/06/16 11:18:06;;;;;;;;;9.40;9.40;;;;;27.08;28.01;101467.00;4977969;28;45354;-50
2022/06/16 11:20:41;;;;;;;;;7.80;7.00;;;;;27.08;28.42;101469.84;4992269;28;45418;-54
2022/06/16 11:23:22;;;;;;;;;6.00;5.80;;;;;27.13;28.57;101473.41;4994660;28;45558;-48
2022/06/16 11:25:57;;;;;;;;;9.40;8.40;;;;;27.31;28.20;101491.41;4996042;28;45486;-51
2022/06/16 11:28:24;;;;;;;;;13.40;11.40;;;;;27.36;29.03;101496.13;4981849;28;46138;-50
2022/06/16 11:30:49;;;;;;;;;12.20;10.80;;;;;27.41;28.77;101487.59;4995871;28;45266;-53
2022/06/16 11:36:43;;;;;;;;;11.20;10.60;;;;;27.41;29.16;101464.19;4997161;28;45377;-48
2022/06/16 11:39:46;;;;;;;;;13.40;9.60;;;;;27.49;28.74;101466.31;4998581;28;45395;-50
2022/06/16 11:42:35;;;;;;;;;12.00;11.40;;;;;27.42;28.17;101457.44;4998230;28;45396;-50
2022/06/16 11:45:18;;;;;;;;;7.80;7.80;;;;;27.51;29.06;101443.44;4977856;28;45498;-56
2022/06/16 11:48:05;;;;;;;;;14.00;10.00;;;;;27.85;28.37;101474.09;4959796;28;46268;-54
2022/06/16 11:50:40;;;;;;;;;10.60;10.60;;;;;27.98;28.55;101472.44;4985643;28;45445;-50
2022/06/16 11:53:24;;;;;;;;;10.40;9.20;;;;;28.01;27.14;101470.94;4997307;28;45433;-55
2022/06/16 11:55:57;;;;;;;;;8.80;8.80;;;;;27.98;27.56;101471.59;4997407;28;45434;-55